Latest Weather Observations for Cape Bruny AWS

IDT60801

Issued at 2:32 pm EST Friday 28 July 2017 (issued every 30 minutes, with the page automatically refreshed every 10 minutes)

About weather observations | Map of weather stations | Latest weather observations for TAS | Other Formats
Station Details ID: 094198 Name: CAPE BRUNY (CAPE BRUNY) Lat: -43.49 Lon: 147.14 Height: 59.7 m
Data from the previous 72 hours. | See also: Recent months at Cape Bruny AWS
Date/Time
EST
Temp
°C
App
Temp
°C
Dew
Point
°C
Rel
Hum
%
Delta-T
°C
Wind Press
QNH
hPa
Press
MSL
hPa
Rain since
9am
mm
Dir  Spd
km/h
Gust
km/h
Spd
kts
Gust
kts
28/02:30pm 10.9 2.6 4.4 64 2.9 WSW 37 54 20 29 1011.4 1011.5 0.6
28/02:04pm 10.9 1.7 3.7 61 3.2 WSW 41 61 22 33 1011.0 1011.1 0.6
28/02:00pm 11.4 3.5 4.4 62 3.2 WSW 35 48 19 26 1011.0 1011.1 0.6
28/01:30pm 10.6 1.9 3.9 63 3.0 W 39 54 21 29 1010.8 1010.9 0.6
28/01:06pm 10.4 0.8 3.2 61 3.1 W 43 63 23 34 1010.4 1010.5 0.6
28/01:00pm 10.4 1.0 4.5 67 2.7 W 43 54 23 29 1010.3 1010.4 0.6
28/12:30pm 9.5 0.1 4.5 71 2.2 WSW 43 61 23 33 1010.4 1010.5 0.6
28/12:26pm 9.8 2.0 5.0 72 2.2 W 35 54 19 29 1010.3 1010.4 0.6
28/12:00pm 10.1 2.1 5.7 74 2.0 W 37 48 20 26 1010.2 1010.3 0.6
28/11:30am 9.5 1.7 6.6 82 1.4 W 37 57 20 31 1010.0 1010.1 0.6
28/11:29am 9.4 1.6 6.5 82 1.4 W 37 56 20 30 1010.1 1010.2 0.6
28/11:00am 9.0 2.2 7.0 87 0.9 W 32 39 17 21 1009.8 1009.9 0.6
28/10:30am 9.1 2.1 6.9 86 1.0 W 33 44 18 24 1009.6 1009.7 0.6
28/10:00am 9.5 3.1 6.9 84 1.2 W 30 37 16 20 1009.1 1009.2 0.4
28/09:37am 8.4 0.6 6.7 89 0.8 W 37 56 20 30 1008.8 1008.9 0.4
28/09:30am 8.6 0.4 6.7 88 0.9 W 39 56 21 30 1008.7 1008.8 0.4
28/09:00am 9.0 1.2 6.6 85 1.1 W 37 57 20 31 1008.3 1008.4 0.6
28/08:30am 9.0 2.1 6.4 84 1.2 W 32 43 17 23 1007.8 1007.9 0.6
28/08:28am 8.9 2.3 6.2 83 1.2 W 30 41 16 22 1007.8 1007.9 0.6
28/08:00am 8.5 4.3 5.6 82 1.3 WNW 17 22 9 12 1007.4 1007.5 0.4
28/07:30am 8.4 4.2 5.7 83 1.2 WNW 17 26 9 14 1006.7 1006.8 0.4
28/07:00am 9.3 2.2 5.7 78 1.7 WNW 32 39 17 21 1006.4 1006.5 0.0
28/06:39am 9.7 2.4 4.5 70 2.3 WNW 32 50 17 27 1005.9 1006.0 0.0
28/06:30am 9.7 1.8 4.5 70 2.3 WNW 35 46 19 25 1005.6 1005.7 0.0
28/06:25am 9.5 1.9 4.1 69 2.4 NW 33 46 18 25 1005.5 1005.6 0.0
28/06:00am 8.7 3.8 4.3 74 1.9 NNW 19 28 10 15 1005.4 1005.5 0.0
28/05:30am 8.5 4.4 4.3 75 1.8 NNW 15 24 8 13 1005.0 1005.1 0.0
28/05:00am 8.7 4.0 5.3 79 1.5 N 19 26 10 14 1004.9 1005.0 0.0
28/04:30am 8.2 3.4 4.8 79 1.5 N 19 26 10 14 1004.6 1004.7 0.0
28/04:00am 8.7 4.4 5.1 78 1.6 N 17 26 9 14 1004.3 1004.4 0.0
28/03:30am 8.4 4.0 4.8 78 1.6 N 17 24 9 13 1004.0 1004.0 0.0
28/03:00am 8.4 4.4 4.8 78 1.6 N 15 24 8 13 1004.2 1004.3 0.0
28/02:30am 8.5 4.4 4.3 75 1.8 N 15 22 8 12 1004.2 1004.3 0.0
28/02:00am 9.1 4.0 3.9 70 2.3 NNW 20 26 11 14 1003.9 1003.9 0.0
28/01:30am 9.6 4.1 4.0 68 2.5 NNW 22 28 12 15 1003.6 1003.6 0.0
28/01:00am 9.6 4.4 5.4 75 1.9 NW 22 32 12 17 1003.8 1003.8 0.0
28/12:30am 9.6 5.1 6.1 79 1.6 NNW 19 24 10 13 1004.4 1004.5 0.0
28/12:00am 9.6 5.6 5.0 73 2.1 N 15 20 8 11 1003.9 1003.9 0.0
 
Date/Time
EST
Temp
°C
App
Temp
°C
Dew
Point
°C
Rel
Hum
%
Delta-T
°C
Wind Press
QNH
hPa
Press
MSL
hPa
Rain since
9am
mm
Dir  Spd
km/h
Gust
km/h
Spd
kts
Gust
kts
27/11:30pm 9.5 5.9 5.1 74 2.0 NNE 13 19 7 10 1004.1 1004.1 0.0
27/11:00pm 9.8 5.4 4.8 71 2.3 NNE 17 26 9 14 1004.4 1004.5 0.0
27/10:30pm 9.8 4.4 4.6 70 2.3 NNE 22 35 12 19 1004.6 1004.7 0.0
27/10:00pm 9.9 4.9 3.4 64 2.8 NE 19 28 10 15 1005.0 1005.1 0.0
27/09:30pm 10.3 6.3 3.1 61 3.1 NE 13 22 7 12 1005.4 1005.5 0.0
27/09:00pm 10.4 6.4 3.0 60 3.2 NNE 13 20 7 11 1006.0 1006.1 0.0
27/08:30pm 10.3 6.0 3.1 61 3.1 NNE 15 22 8 12 1006.4 1006.5 0.0
27/08:00pm 9.6 6.5 3.4 65 2.7 NNE 9 17 5 9 1006.8 1006.9 0.0
27/07:30pm 9.1 4.9 3.9 70 2.3 NNE 15 20 8 11 1006.8 1006.9 0.0
27/07:00pm 9.2 4.3 4.0 70 2.3 NNE 19 32 10 17 1007.2 1007.3 0.0
27/06:30pm 8.9 4.8 4.1 72 2.1 NE 15 24 8 13 1007.2 1007.3 0.0
27/06:00pm 8.8 4.2 3.8 71 2.2 NNE 17 26 9 14 1007.7 1007.8 0.0
27/05:30pm 8.9 3.7 3.7 70 2.3 NNE 20 32 11 17 1008.0 1008.1 0.0
27/05:00pm 8.7 4.0 3.1 68 2.4 NE 17 24 9 13 1008.1 1008.2 0.0
27/04:30pm 8.9 3.6 2.9 66 2.6 NE 20 32 11 17 1008.5 1008.6 0.0
27/04:00pm 8.9 4.9 3.1 67 2.5 ENE 13 20 7 11 1009.1 1009.2 0.0
27/03:30pm 9.3 5.4 3.3 66 2.6 NNE 13 19 7 10 1009.7 1009.8 0.0
27/03:00pm 9.4 5.1 3.4 66 2.6 NE 15 20 8 11 1010.3 1010.4 0.0
27/02:30pm 9.6 4.9 3.4 65 2.7 N 17 26 9 14 1011.1 1011.2 0.0
27/02:00pm 9.4 4.8 3.8 68 2.5 NNE 17 26 9 14 1011.4 1011.5 0.0
27/01:30pm 9.2 5.8 4.0 70 2.3 NE 11 17 6 9 1012.1 1012.2 0.0
27/01:00pm 9.2 5.3 3.6 68 2.4 NE 13 22 7 12 1012.7 1012.8 0.0
27/12:30pm 9.4 4.7 3.4 66 2.6 NNE 17 26 9 14 1013.2 1013.3 0.0
27/12:00pm 10.0 4.8 3.7 65 2.8 NNE 20 35 11 19 1013.9 1014.0 0.0
27/11:30am 10.1 5.4 3.2 62 3.0 NNE 17 26 9 14 1014.7 1014.8 0.0
27/11:00am 8.8 3.1 2.6 65 2.6 N 22 33 12 18 1015.2 1015.3 0.0
27/10:30am 8.9 3.5 2.5 64 2.7 N 20 32 11 17 1015.6 1015.7 0.0
27/10:00am 8.4 2.9 2.0 64 2.7 NNE 20 28 11 15 1016.2 1016.3 0.0
27/09:30am 8.2 3.4 2.7 68 2.3 NNE 17 26 9 14 1016.7 1016.8 0.0
27/09:00am 7.3 2.1 2.6 72 2.0 N 19 30 10 16 1016.8 1016.9 2.6
27/08:30am 6.3 1.1 2.4 76 1.6 NNE 19 26 10 14 1016.9 1017.0 2.6
27/08:00am 4.9 -0.3 2.4 84 1.0 NNE 19 24 10 13 1017.0 1017.1 2.6
27/07:30am 4.8 0.0 2.7 86 0.9 N 17 24 9 13 1017.5 1017.6 2.6
27/07:00am 4.9 -0.2 2.9 87 0.8 N 19 24 10 13 1017.4 1017.5 2.6
27/06:30am 4.8 -0.6 2.2 83 1.0 N 20 24 11 13 1017.1 1017.2 2.6
27/06:00am 4.7 -0.9 1.4 79 1.3 N 20 26 11 14 1016.8 1016.9 2.6
27/05:30am 4.8 -0.6 1.5 79 1.3 NNW 19 22 10 12 1017.2 1017.3 2.6
27/05:00am 4.9 -0.7 1.2 77 1.5 N 20 26 11 14 1017.2 1017.3 2.6
27/04:30am 4.8 -0.8 1.5 79 1.3 NNW 20 26 11 14 1017.4 1017.5 2.6
27/04:00am 4.4 -1.0 1.4 81 1.2 NNW 19 24 10 13 1017.4 1017.5 2.6
27/03:30am 5.4 0.4 1.5 76 1.6 NNW 17 24 9 13 1017.5 1017.6 2.6
27/03:00am 6.8 0.2 2.3 73 1.8 NW 26 35 14 19 1017.6 1017.7 2.6
27/02:30am 6.5 0.3 2.2 74 1.8 NW 24 32 13 17 1017.8 1017.9 2.6
27/02:00am 6.2 0.3 1.9 74 1.7 NW 22 30 12 16 1017.8 1017.9 2.6
27/01:30am 5.9 0.6 1.8 75 1.7 NW 19 24 10 13 1017.7 1017.8 2.6
27/01:00am 6.9 0.7 2.4 73 1.9 WNW 24 33 13 18 1017.8 1017.9 2.6
27/12:30am 6.8 -0.5 2.3 73 1.9 NW 30 37 16 20 1017.7 1017.8 2.6
27/12:00am 6.4 0.2 2.1 74 1.8 NW 24 32 13 17 1017.8 1017.9 2.6
 
Date/Time
EST
Temp
°C
App
Temp
°C
Dew
Point
°C
Rel
Hum
%
Delta-T
°C
Wind Press
QNH
hPa
Press
MSL
hPa
Rain since
9am
mm
Dir  Spd
km/h
Gust
km/h
Spd
kts
Gust
kts
26/11:30pm 6.1 -0.9 2.2 76 1.6 NW 28 32 15 17 1017.7 1017.8 2.6
26/11:00pm 5.7 -0.5 2.4 79 1.3 NW 24 30 13 16 1017.6 1017.7 2.6
26/10:30pm 5.5 0.3 2.3 80 1.3 WNW 19 26 10 14 1017.5 1017.6 2.6
26/10:00pm 5.7 1.0 2.9 82 1.2 WNW 17 20 9 11 1017.5 1017.6 2.4
26/09:30pm 6.0 1.3 3.3 83 1.1 W 17 24 9 13 1017.5 1017.6 2.4
26/09:00pm 6.2 0.9 3.0 80 1.3 W 20 26 11 14 1017.2 1017.3 2.4
26/08:38pm 5.9 -0.9 2.9 81 1.2 W 28 46 15 25 1017.0 1017.1 2.4
26/08:30pm 6.3 -1.8 3.5 82 1.2 W 35 46 19 25 1017.0 1017.1 2.2
26/08:00pm 6.2 -1.0 3.2 81 1.3 W 30 43 16 23 1016.7 1016.8 2.2
26/07:30pm 6.4 0.0 3.2 80 1.3 WNW 26 32 14 17 1016.6 1016.7 2.2
26/07:00pm 6.1 0.8 2.9 80 1.3 WNW 20 33 11 18 1016.3 1016.4 2.2
26/06:30pm 6.9 -0.6 3.2 77 1.6 WNW 32 39 17 21 1015.7 1015.8 2.2
26/06:00pm 7.0 -0.8 3.1 76 1.6 W 33 46 18 25 1015.1 1015.2 2.2
26/05:30pm 6.5 -2.3 3.5 81 1.3 W 39 54 21 29 1015.0 1015.1 2.0
26/05:12pm 7.1 -0.6 3.3 77 1.6 W 33 54 18 29 1014.6 1014.7 2.0
26/05:00pm 6.8 -0.6 3.8 81 1.3 W 32 43 17 23 1014.6 1014.7 2.0
26/04:30pm 7.1 -1.0 3.0 75 1.7 W 35 46 19 25 1014.3 1014.4 2.0
26/04:00pm 7.5 -0.1 3.0 73 1.9 W 32 39 17 21 1014.1 1014.2 2.0
26/03:30pm 6.9 -1.1 4.0 82 1.2 W 35 46 19 25 1013.7 1013.8 2.0
26/03:00pm 8.3 -1.0 3.0 69 2.3 W 41 54 22 29 1013.1 1013.2 2.0
26/02:41pm 9.0 -0.4 4.2 72 2.1 W 43 61 23 33 1012.7 1012.8 2.0
26/02:30pm 8.6 -1.2 2.2 64 2.7 WSW 43 56 23 30 1012.5 1012.6 2.0
26/02:10pm 7.8 -2.0 3.5 74 1.8 W 44 63 24 34 1012.5 1012.6 2.0
26/02:00pm 7.6 -2.6 3.1 73 1.9 W 46 63 25 34 1012.1 1012.2 2.0
26/01:38pm 8.2 -2.1 2.7 68 2.3 WSW 46 67 25 36 1011.8 1011.9 2.0
26/01:30pm 8.3 -1.6 3.0 69 2.3 WSW 44 56 24 30 1011.7 1011.8 2.0
26/01:00pm 7.7 -2.1 2.0 67 2.4 WSW 43 54 23 29 1011.6 1011.7 2.0
26/12:30pm 7.1 -1.0 3.3 77 1.6 WSW 35 46 19 25 1011.5 1011.6 2.0
26/12:02pm 6.8 -2.3 4.1 83 1.2 WSW 41 59 22 32 1011.3 1011.4 2.0
26/12:00pm 6.7 -2.2 3.3 79 1.4 WSW 39 52 21 28 1011.3 1011.4 2.0
26/11:33am 6.6 -1.6 2.5 75 1.7 SW 35 54 19 29 1011.4 1011.5 1.6
26/11:30am 7.3 -1.5 3.7 78 1.5 WSW 39 54 21 29 1011.5 1011.6 1.6
26/11:09am 7.5 0.4 3.6 76 1.7 SW 30 48 16 26 1011.0 1011.1 1.6
26/11:00am 7.1 0.3 3.2 76 1.6 SW 28 43 15 23 1011.0 1011.1 1.6
26/10:30am 6.6 -1.8 3.6 81 1.3 W 37 56 20 30 1010.6 1010.7 1.6
26/10:04am 7.3 0.2 3.5 77 1.6 SW 30 50 16 27 1010.3 1010.4 1.2
26/10:00am 7.4 0.7 3.8 78 1.5 SW 28 39 15 21 1010.4 1010.5 1.2
26/09:30am 6.2 0.3 4.0 86 0.9 SW 24 39 13 21 1010.1 1010.2 1.2
26/09:00am 6.2 -1.8 4.0 86 0.9 WSW 35 50 19 27 1009.5 1009.6 18.0
26/08:38am 7.1 0.3 3.2 76 1.6 WSW 28 46 15 25 1008.9 1009.0 17.6
26/08:30am 7.1 -0.5 2.6 73 1.9 WSW 32 46 17 25 1008.7 1008.8 17.6
26/08:06am 7.5 0.4 1.6 66 2.4 SW 28 46 15 25 1008.3 1008.4 17.6
26/08:00am 7.5 1.6 1.8 67 2.3 SW 22 41 12 22 1008.1 1008.2 17.6
26/07:30am 7.4 0.3 1.3 65 2.5 SW 28 41 15 22 1007.2 1007.3 17.6
26/07:00am 7.8 0.5 2.3 68 2.3 SW 30 50 16 27 1006.3 1006.4 17.6
26/06:56am 7.9 1.0 2.6 69 2.2 SW 28 50 15 27 1006.3 1006.4 17.6
26/06:30am 7.8 1.7 2.5 69 2.2 SSW 24 43 13 23 1005.6 1005.7 17.6
26/06:00am 7.8 0.7 3.3 73 1.9 S 30 50 16 27 1004.9 1005.0 17.6
26/05:30am 7.8 0.4 4.2 78 1.6 S 32 50 17 27 1004.1 1004.1 17.6
26/05:00am 7.5 -0.6 5.1 85 1.1 S 37 59 20 32 1003.5 1003.5 17.6
26/04:53am 7.7 0.4 5.5 86 1.0 S 33 56 18 30 1003.2 1003.2 17.4
26/04:30am 7.0 -0.4 4.8 86 1.0 SSE 33 44 18 24 1002.8 1002.8 17.4
26/04:00am 7.5 -0.9 5.8 89 0.8 SSE 39 54 21 29 1002.1 1002.1 16.6
26/03:30am 7.8 -0.9 6.1 89 0.8 SSE 41 57 22 31 1001.4 1001.5 15.2
26/03:13am 7.7 3.2 6.3 91 0.6 S 19 52 10 28 1001.1 1001.2 14.4
26/03:00am 7.8 4.9 6.4 91 0.6 SSW 11 19 6 10 1001.2 1001.3 12.2
26/02:30am 7.7 5.1 6.3 91 0.6 WNW 9 11 5 6 1000.7 1000.8 9.8
26/02:00am 7.8 4.9 6.6 92 0.6 NNW 11 11 6 6 1000.3 1000.4 9.6
26/01:30am 7.8 4.2 6.6 92 0.6 N 15 17 8 9 1000.3 1000.4 8.8
26/01:00am 7.8 4.0 5.9 88 0.9 NNW 15 20 8 11 1000.2 1000.3 8.6
26/12:30am 7.8 4.0 5.9 88 0.9 NW 15 20 8 11 1000.4 1000.5 8.4
26/12:00am 7.8 3.6 5.8 87 0.9 NW 17 24 9 13 1000.4 1000.5 8.4
 
Date/Time
EST
Temp
°C
App
Temp
°C
Dew
Point
°C
Rel
Hum
%
Delta-T
°C
Wind Press
QNH
hPa
Press
MSL
hPa
Rain since
9am
mm
Dir  Spd
km/h
Gust
km/h
Spd
kts
Gust
kts
25/11:30pm 7.9 2.8 6.2 89 0.8 WNW 22 32 12 17 1000.8 1000.9 7.4
25/11:00pm 8.1 2.3 6.2 88 0.9 NW 26 35 14 19 1000.9 1001.0 5.2
25/10:30pm 8.4 3.7 6.0 85 1.1 NW 20 30 11 16 1001.0 1001.1 4.0
25/10:00pm 8.4 3.9 6.2 86 1.0 NW 19 24 10 13 1001.0 1001.1 3.6
25/09:30pm 8.9 5.8 7.2 89 0.8 NW 13 17 7 9 1001.4 1001.5 3.6
25/09:00pm 8.8 5.2 6.8 87 0.9 NW 15 19 8 10 1001.5 1001.6 3.6
25/08:30pm 8.9 4.5 6.5 85 1.1 NNW 19 24 10 13 1001.4 1001.5 1.2
25/08:00pm 9.2 5.1 6.3 82 1.4 NNW 17 22 9 12 1001.2 1001.3 0.6
25/07:30pm 9.6 5.1 6.0 78 1.7 NNW 19 24 10 13 1001.5 1001.6 0.2
25/07:00pm 9.7 5.2 6.2 79 1.6 NNW 19 24 10 13 1001.5 1001.6 0.2
25/06:30pm 10.0 6.7 6.3 78 1.7 NNW 13 22 7 12 1002.2 1002.2 0.2
25/06:00pm 11.1 3.9 4.8 65 2.9 W 32 37 17 20 1001.5 1001.6 0.0
25/05:30pm 11.0 3.5 4.7 65 2.9 W 33 39 18 21 1001.3 1001.4 0.0
25/05:00pm 11.4 2.3 4.2 61 3.3 WNW 41 48 22 26 1001.6 1001.7 0.0
25/04:30pm 11.5 5.2 5.6 67 2.7 WNW 28 37 15 20 1002.0 1002.0 0.0
25/04:00pm 11.8 5.6 6.3 69 2.6 WNW 28 33 15 18 1002.0 1002.0 0.0
25/03:35pm 12.7 5.9 4.9 59 3.6 WNW 30 54 16 29 1001.6 1001.7 0.0
25/03:30pm 13.0 6.8 6.1 63 3.3 WNW 28 37 15 20 1001.7 1001.8 0.0
25/03:00pm 13.4 5.9 6.5 63 3.3 W 35 41 19 22 1001.9 1001.9 0.0

Other Formats:

Comma delimited format used in spreadsheet applications
http://www.bom.gov.au/fwo/IDT60801/IDT60801.95967.axf

JavaScript Object Notation format (JSON) in row-major order
http://www.bom.gov.au/fwo/IDT60801/IDT60801.95967.json